sensor_id;sensor_type;location;lat;lon;timestamp;P1;durP1;ratioP1;P2;durP2;ratioP2
39066;SDS011;24821;51.988;6.020;2023-05-07T00:02:21;7.15;;;6.45;;
39066;SDS011;24821;51.988;6.020;2023-05-07T00:04:47;6.63;;;6.13;;
39066;SDS011;24821;51.988;6.020;2023-05-07T00:07:13;6.68;;;6.05;;
39066;SDS011;24821;51.988;6.020;2023-05-07T00:09:39;9.73;;;6.78;;
39066;SDS011;24821;51.988;6.020;2023-05-07T00:12:05;7.03;;;6.47;;
39066;SDS011;24821;51.988;6.020;2023-05-07T00:14:31;10.27;;;6.25;;
39066;SDS011;24821;51.988;6.020;2023-05-07T00:16:56;6.68;;;6.10;;
39066;SDS011;24821;51.988;6.020;2023-05-07T00:19:22;6.70;;;6.10;;
39066;SDS011;24821;51.988;6.020;2023-05-07T00:21:48;6.68;;;5.80;;
39066;SDS011;24821;51.988;6.020;2023-05-07T00:24:13;6.65;;;6.05;;
39066;SDS011;24821;51.988;6.020;2023-05-07T00:26:39;6.53;;;6.03;;
39066;SDS011;24821;51.988;6.020;2023-05-07T00:29:04;6.30;;;5.80;;
39066;SDS011;24821;51.988;6.020;2023-05-07T00:31:30;6.05;;;5.57;;
39066;SDS011;24821;51.988;6.020;2023-05-07T00:33:55;7.50;;;6.65;;
39066;SDS011;24821;51.988;6.020;2023-05-07T00:36:21;7.45;;;6.85;;
39066;SDS011;24821;51.988;6.020;2023-05-07T00:38:46;10.00;;;8.13;;
39066;SDS011;24821;51.988;6.020;2023-05-07T00:41:12;7.65;;;7.05;;
39066;SDS011;24821;51.988;6.020;2023-05-07T00:43:37;7.72;;;6.88;;
39066;SDS011;24821;51.988;6.020;2023-05-07T00:46:03;7.57;;;6.85;;
39066;SDS011;24821;51.988;6.020;2023-05-07T00:48:29;8.52;;;7.72;;
39066;SDS011;24821;51.988;6.020;2023-05-07T00:50:55;7.68;;;6.97;;
39066;SDS011;24821;51.988;6.020;2023-05-07T00:53:21;7.70;;;7.10;;
39066;SDS011;24821;51.988;6.020;2023-05-07T00:55:47;7.85;;;7.25;;
39066;SDS011;24821;51.988;6.020;2023-05-07T00:58:13;7.03;;;6.07;;
39066;SDS011;24821;51.988;6.020;2023-05-07T01:00:39;7.55;;;6.93;;
39066;SDS011;24821;51.988;6.020;2023-05-07T01:03:05;7.50;;;6.80;;
39066;SDS011;24821;51.988;6.020;2023-05-07T01:05:31;7.40;;;6.53;;
39066;SDS011;24821;51.988;6.020;2023-05-07T01:07:56;7.28;;;6.57;;
39066;SDS011;24821;51.988;6.020;2023-05-07T01:10:23;8.00;;;7.38;;
39066;SDS011;24821;51.988;6.020;2023-05-07T01:12:49;7.38;;;6.78;;
39066;SDS011;24821;51.988;6.020;2023-05-07T01:15:15;8.20;;;7.40;;
39066;SDS011;24821;51.988;6.020;2023-05-07T01:17:42;7.88;;;7.03;;
39066;SDS011;24821;51.988;6.020;2023-05-07T01:20:08;7.70;;;7.00;;
39066;SDS011;24821;51.988;6.020;2023-05-07T01:22:37;7.57;;;6.88;;
39066;SDS011;24821;51.988;6.020;2023-05-07T01:25:04;8.02;;;7.32;;
39066;SDS011;24821;51.988;6.020;2023-05-07T01:27:30;7.35;;;6.85;;
39066;SDS011;24821;51.988;6.020;2023-05-07T01:29:58;10.07;;;7.50;;
39066;SDS011;24821;51.988;6.020;2023-05-07T01:32:27;8.40;;;7.65;;
39066;SDS011;24821;51.988;6.020;2023-05-07T01:34:58;8.82;;;7.93;;
39066;SDS011;24821;51.988;6.020;2023-05-07T01:37:26;7.90;;;7.10;;
39066;SDS011;24821;51.988;6.020;2023-05-07T01:39:52;7.03;;;6.55;;
39066;SDS011;24821;51.988;6.020;2023-05-07T01:42:18;7.45;;;6.85;;
39066;SDS011;24821;51.988;6.020;2023-05-07T01:44:44;6.55;;;6.05;;
39066;SDS011;24821;51.988;6.020;2023-05-07T01:47:10;7.57;;;6.95;;
39066;SDS011;24821;51.988;6.020;2023-05-07T01:49:37;7.53;;;6.90;;
39066;SDS011;24821;51.988;6.020;2023-05-07T01:52:03;6.63;;;6.07;;
39066;SDS011;24821;51.988;6.020;2023-05-07T01:54:29;6.72;;;6.22;;
39066;SDS011;24821;51.988;6.020;2023-05-07T01:56:56;7.35;;;6.80;;
39066;SDS011;24821;51.988;6.020;2023-05-07T01:59:22;7.07;;;6.57;;
39066;SDS011;24821;51.988;6.020;2023-05-07T02:01:47;8.85;;;7.93;;
39066;SDS011;24821;51.988;6.020;2023-05-07T02:04:13;8.73;;;7.82;;
39066;SDS011;24821;51.988;6.020;2023-05-07T02:06:38;9.00;;;8.27;;
39066;SDS011;24821;51.988;6.020;2023-05-07T02:09:04;11.30;;;8.02;;
39066;SDS011;24821;51.988;6.020;2023-05-07T02:11:30;8.63;;;7.88;;
39066;SDS011;24821;51.988;6.020;2023-05-07T02:13:55;8.90;;;8.13;;
39066;SDS011;24821;51.988;6.020;2023-05-07T02:16:21;8.32;;;7.63;;
39066;SDS011;24821;51.988;6.020;2023-05-07T02:18:48;8.77;;;8.07;;
39066;SDS011;24821;51.988;6.020;2023-05-07T02:21:13;9.82;;;8.57;;
39066;SDS011;24821;51.988;6.020;2023-05-07T02:23:39;8.98;;;7.35;;
39066;SDS011;24821;51.988;6.020;2023-05-07T02:26:04;7.55;;;6.95;;
39066;SDS011;24821;51.988;6.020;2023-05-07T02:28:30;9.65;;;7.10;;
39066;SDS011;24821;51.988;6.020;2023-05-07T02:30:55;8.70;;;8.02;;
39066;SDS011;24821;51.988;6.020;2023-05-07T02:33:23;8.27;;;7.53;;
39066;SDS011;24821;51.988;6.020;2023-05-07T02:35:48;8.68;;;7.97;;
39066;SDS011;24821;51.988;6.020;2023-05-07T02:38:14;8.55;;;7.75;;
39066;SDS011;24821;51.988;6.020;2023-05-07T02:40:40;9.27;;;8.45;;
39066;SDS011;24821;51.988;6.020;2023-05-07T02:43:05;9.63;;;8.75;;
39066;SDS011;24821;51.988;6.020;2023-05-07T02:45:32;8.90;;;8.20;;
39066;SDS011;24821;51.988;6.020;2023-05-07T02:47:57;8.30;;;7.60;;
39066;SDS011;24821;51.988;6.020;2023-05-07T02:50:23;10.05;;;9.02;;
39066;SDS011;24821;51.988;6.020;2023-05-07T02:52:49;9.38;;;8.45;;
39066;SDS011;24821;51.988;6.020;2023-05-07T02:55:14;9.20;;;8.50;;
39066;SDS011;24821;51.988;6.020;2023-05-07T02:57:40;11.50;;;9.07;;
39066;SDS011;24821;51.988;6.020;2023-05-07T03:02:42;9.98;;;9.13;;
39066;SDS011;24821;51.988;6.020;2023-05-07T03:05:08;9.32;;;8.57;;
39066;SDS011;24821;51.988;6.020;2023-05-07T03:07:35;10.40;;;9.27;;
39066;SDS011;24821;51.988;6.020;2023-05-07T03:10:01;9.23;;;8.43;;
39066;SDS011;24821;51.988;6.020;2023-05-07T03:12:27;10.85;;;9.85;;
39066;SDS011;24821;51.988;6.020;2023-05-07T03:14:52;10.63;;;9.73;;
39066;SDS011;24821;51.988;6.020;2023-05-07T03:17:18;10.35;;;9.35;;
39066;SDS011;24821;51.988;6.020;2023-05-07T03:19:43;12.57;;;10.45;;
39066;SDS011;24821;51.988;6.020;2023-05-07T03:22:09;10.75;;;9.65;;
39066;SDS011;24821;51.988;6.020;2023-05-07T03:24:34;11.30;;;10.07;;
39066;SDS011;24821;51.988;6.020;2023-05-07T03:27:00;10.98;;;9.95;;
39066;SDS011;24821;51.988;6.020;2023-05-07T03:29:26;11.15;;;10.05;;
39066;SDS011;24821;51.988;6.020;2023-05-07T03:31:51;10.73;;;9.82;;
39066;SDS011;24821;51.988;6.020;2023-05-07T03:34:17;11.48;;;10.43;;
39066;SDS011;24821;51.988;6.020;2023-05-07T03:36:46;12.52;;;11.43;;
39066;SDS011;24821;51.988;6.020;2023-05-07T03:39:15;12.55;;;11.50;;
39066;SDS011;24821;51.988;6.020;2023-05-07T03:41:41;13.45;;;12.15;;
39066;SDS011;24821;51.988;6.020;2023-05-07T03:44:06;15.13;;;12.00;;
39066;SDS011;24821;51.988;6.020;2023-05-07T03:46:33;15.73;;;12.70;;
39066;SDS011;24821;51.988;6.020;2023-05-07T03:48:59;14.15;;;12.38;;
39066;SDS011;24821;51.988;6.020;2023-05-07T03:51:24;14.80;;;13.15;;
39066;SDS011;24821;51.988;6.020;2023-05-07T03:53:50;14.57;;;13.05;;
39066;SDS011;24821;51.988;6.020;2023-05-07T03:56:18;13.52;;;12.25;;
39066;SDS011;24821;51.988;6.020;2023-05-07T03:58:44;15.30;;;13.85;;
39066;SDS011;24821;51.988;6.020;2023-05-07T04:01:10;13.48;;;12.15;;
39066;SDS011;24821;51.988;6.020;2023-05-07T04:03:36;15.05;;;13.55;;
39066;SDS011;24821;51.988;6.020;2023-05-07T04:06:02;14.32;;;12.93;;
39066;SDS011;24821;51.988;6.020;2023-05-07T04:08:27;14.40;;;13.18;;
39066;SDS011;24821;51.988;6.020;2023-05-07T04:10:56;15.20;;;13.90;;
39066;SDS011;24821;51.988;6.020;2023-05-07T04:13:22;15.20;;;13.63;;
39066;SDS011;24821;51.988;6.020;2023-05-07T04:15:48;15.23;;;13.75;;
39066;SDS011;24821;51.988;6.020;2023-05-07T04:18:14;12.90;;;11.80;;
39066;SDS011;24821;51.988;6.020;2023-05-07T04:20:40;16.10;;;14.48;;
39066;SDS011;24821;51.988;6.020;2023-05-07T04:23:06;15.38;;;12.70;;
39066;SDS011;24821;51.988;6.020;2023-05-07T04:25:32;14.20;;;12.82;;
39066;SDS011;24821;51.988;6.020;2023-05-07T04:27:58;13.13;;;11.93;;
39066;SDS011;24821;51.988;6.020;2023-05-07T04:30:23;15.63;;;14.02;;
39066;SDS011;24821;51.988;6.020;2023-05-07T04:32:49;14.80;;;13.40;;
39066;SDS011;24821;51.988;6.020;2023-05-07T04:35:15;14.57;;;13.30;;
39066;SDS011;24821;51.988;6.020;2023-05-07T04:37:41;13.88;;;12.68;;
39066;SDS011;24821;51.988;6.020;2023-05-07T04:40:07;13.23;;;11.88;;
39066;SDS011;24821;51.988;6.020;2023-05-07T04:42:32;16.88;;;13.57;;
39066;SDS011;24821;51.988;6.020;2023-05-07T04:44:58;14.32;;;12.93;;
39066;SDS011;24821;51.988;6.020;2023-05-07T04:47:24;14.25;;;12.93;;
39066;SDS011;24821;51.988;6.020;2023-05-07T04:49:49;15.23;;;13.77;;
39066;SDS011;24821;51.988;6.020;2023-05-07T04:52:15;15.20;;;13.70;;
39066;SDS011;24821;51.988;6.020;2023-05-07T04:54:41;14.98;;;13.65;;
39066;SDS011;24821;51.988;6.020;2023-05-07T04:57:07;14.88;;;13.10;;
39066;SDS011;24821;51.988;6.020;2023-05-07T04:59:33;14.68;;;13.23;;
39066;SDS011;24821;51.988;6.020;2023-05-07T05:01:58;14.05;;;12.75;;
39066;SDS011;24821;51.988;6.020;2023-05-07T05:04:24;15.55;;;14.05;;
39066;SDS011;24821;51.988;6.020;2023-05-07T05:06:49;15.20;;;13.70;;
39066;SDS011;24821;51.988;6.020;2023-05-07T05:09:15;15.68;;;14.05;;
39066;SDS011;24821;51.988;6.020;2023-05-07T05:11:41;19.98;;;14.02;;
39066;SDS011;24821;51.988;6.020;2023-05-07T05:14:06;14.57;;;13.07;;
39066;SDS011;24821;51.988;6.020;2023-05-07T05:16:32;14.23;;;12.82;;
39066;SDS011;24821;51.988;6.020;2023-05-07T05:18:58;17.27;;;13.40;;
39066;SDS011;24821;51.988;6.020;2023-05-07T05:21:24;16.77;;;15.18;;
39066;SDS011;24821;51.988;6.020;2023-05-07T05:23:49;14.18;;;12.95;;
39066;SDS011;24821;51.988;6.020;2023-05-07T05:26:15;14.55;;;12.90;;
39066;SDS011;24821;51.988;6.020;2023-05-07T05:28:40;14.55;;;13.05;;
39066;SDS011;24821;51.988;6.020;2023-05-07T05:31:06;16.40;;;14.77;;
39066;SDS011;24821;51.988;6.020;2023-05-07T05:33:32;18.65;;;14.20;;
39066;SDS011;24821;51.988;6.020;2023-05-07T05:35:57;14.70;;;13.20;;
39066;SDS011;24821;51.988;6.020;2023-05-07T05:38:23;14.77;;;13.30;;
39066;SDS011;24821;51.988;6.020;2023-05-07T05:40:48;16.85;;;14.00;;
39066;SDS011;24821;51.988;6.020;2023-05-07T05:43:14;13.77;;;12.48;;
39066;SDS011;24821;51.988;6.020;2023-05-07T05:45:39;14.68;;;12.93;;
39066;SDS011;24821;51.988;6.020;2023-05-07T05:48:05;15.02;;;12.95;;
39066;SDS011;24821;51.988;6.020;2023-05-07T05:50:31;13.88;;;12.02;;
39066;SDS011;24821;51.988;6.020;2023-05-07T05:52:57;14.02;;;12.77;;
39066;SDS011;24821;51.988;6.020;2023-05-07T05:55:22;16.85;;;13.55;;
39066;SDS011;24821;51.988;6.020;2023-05-07T05:57:48;15.82;;;12.93;;
39066;SDS011;24821;51.988;6.020;2023-05-07T06:00:15;15.63;;;13.93;;
39066;SDS011;24821;51.988;6.020;2023-05-07T06:02:41;17.45;;;14.13;;
39066;SDS011;24821;51.988;6.020;2023-05-07T06:05:07;14.60;;;13.10;;
39066;SDS011;24821;51.988;6.020;2023-05-07T06:07:34;16.30;;;12.68;;
39066;SDS011;24821;51.988;6.020;2023-05-07T06:10:00;16.30;;;14.73;;
39066;SDS011;24821;51.988;6.020;2023-05-07T06:12:26;16.67;;;14.60;;
39066;SDS011;24821;51.988;6.020;2023-05-07T06:14:51;15.60;;;14.13;;
39066;SDS011;24821;51.988;6.020;2023-05-07T06:17:17;15.98;;;14.32;;
39066;SDS011;24821;51.988;6.020;2023-05-07T06:19:43;15.23;;;13.75;;
39066;SDS011;24821;51.988;6.020;2023-05-07T06:22:08;23.55;;;20.63;;
39066;SDS011;24821;51.988;6.020;2023-05-07T06:24:34;18.45;;;16.63;;
39066;SDS011;24821;51.988;6.020;2023-05-07T06:27:00;16.63;;;14.15;;
39066;SDS011;24821;51.988;6.020;2023-05-07T06:29:25;18.25;;;16.33;;
39066;SDS011;24821;51.988;6.020;2023-05-07T06:31:52;16.60;;;15.00;;
39066;SDS011;24821;51.988;6.020;2023-05-07T06:34:18;17.08;;;15.48;;
39066;SDS011;24821;51.988;6.020;2023-05-07T06:36:43;17.23;;;15.57;;
39066;SDS011;24821;51.988;6.020;2023-05-07T06:39:09;20.13;;;16.05;;
39066;SDS011;24821;51.988;6.020;2023-05-07T06:41:34;16.90;;;15.23;;
39066;SDS011;24821;51.988;6.020;2023-05-07T06:44:01;20.40;;;16.67;;
39066;SDS011;24821;51.988;6.020;2023-05-07T06:46:27;18.50;;;16.70;;
39066;SDS011;24821;51.988;6.020;2023-05-07T06:48:53;17.27;;;15.57;;
39066;SDS011;24821;51.988;6.020;2023-05-07T06:51:19;17.27;;;15.35;;
39066;SDS011;24821;51.988;6.020;2023-05-07T06:53:44;20.77;;;17.90;;
39066;SDS011;24821;51.988;6.020;2023-05-07T06:56:10;17.52;;;15.52;;
39066;SDS011;24821;51.988;6.020;2023-05-07T06:58:36;18.35;;;16.48;;
39066;SDS011;24821;51.988;6.020;2023-05-07T07:01:02;16.70;;;15.25;;
39066;SDS011;24821;51.988;6.020;2023-05-07T07:03:28;18.58;;;16.05;;
39066;SDS011;24821;51.988;6.020;2023-05-07T07:05:54;23.00;;;16.15;;
39066;SDS011;24821;51.988;6.020;2023-05-07T07:08:19;20.83;;;16.63;;
39066;SDS011;24821;51.988;6.020;2023-05-07T07:10:46;16.27;;;14.18;;
39066;SDS011;24821;51.988;6.020;2023-05-07T07:13:12;17.08;;;15.30;;
39066;SDS011;24821;51.988;6.020;2023-05-07T07:15:38;18.58;;;16.75;;
39066;SDS011;24821;51.988;6.020;2023-05-07T07:18:04;20.13;;;17.30;;
39066;SDS011;24821;51.988;6.020;2023-05-07T07:20:29;15.85;;;14.20;;
39066;SDS011;24821;51.988;6.020;2023-05-07T07:22:55;19.00;;;14.82;;
39066;SDS011;24821;51.988;6.020;2023-05-07T07:25:20;18.08;;;14.55;;
39066;SDS011;24821;51.988;6.020;2023-05-07T07:27:46;21.85;;;19.55;;
39066;SDS011;24821;51.988;6.020;2023-05-07T07:30:12;38.92;;;15.18;;
39066;SDS011;24821;51.988;6.020;2023-05-07T07:32:37;16.00;;;14.40;;
39066;SDS011;24821;51.988;6.020;2023-05-07T07:35:03;19.52;;;15.50;;
39066;SDS011;24821;51.988;6.020;2023-05-07T07:37:29;17.23;;;15.27;;
39066;SDS011;24821;51.988;6.020;2023-05-07T07:39:55;18.40;;;14.98;;
39066;SDS011;24821;51.988;6.020;2023-05-07T07:42:21;17.33;;;15.75;;
39066;SDS011;24821;51.988;6.020;2023-05-07T07:44:46;16.40;;;14.70;;
39066;SDS011;24821;51.988;6.020;2023-05-07T07:47:13;22.20;;;14.73;;
39066;SDS011;24821;51.988;6.020;2023-05-07T07:49:38;14.95;;;13.52;;
39066;SDS011;24821;51.988;6.020;2023-05-07T07:52:04;15.90;;;11.73;;
39066;SDS011;24821;51.988;6.020;2023-05-07T07:54:30;16.55;;;14.85;;
39066;SDS011;24821;51.988;6.020;2023-05-07T07:56:55;19.08;;;13.23;;
39066;SDS011;24821;51.988;6.020;2023-05-07T07:59:21;16.42;;;14.50;;
39066;SDS011;24821;51.988;6.020;2023-05-07T08:01:46;17.02;;;11.18;;
39066;SDS011;24821;51.988;6.020;2023-05-07T08:04:14;14.40;;;12.90;;
39066;SDS011;24821;51.988;6.020;2023-05-07T08:06:40;17.13;;;13.38;;
39066;SDS011;24821;51.988;6.020;2023-05-07T08:09:07;14.50;;;13.02;;
39066;SDS011;24821;51.988;6.020;2023-05-07T08:11:33;16.10;;;13.10;;
39066;SDS011;24821;51.988;6.020;2023-05-07T08:13:58;15.85;;;13.95;;
39066;SDS011;24821;51.988;6.020;2023-05-07T08:16:24;15.23;;;13.75;;
39066;SDS011;24821;51.988;6.020;2023-05-07T08:18:50;17.95;;;13.88;;
39066;SDS011;24821;51.988;6.020;2023-05-07T08:21:15;19.55;;;12.75;;
39066;SDS011;24821;51.988;6.020;2023-05-07T08:23:41;17.17;;;12.77;;
39066;SDS011;24821;51.988;6.020;2023-05-07T08:26:07;14.90;;;12.93;;
39066;SDS011;24821;51.988;6.020;2023-05-07T08:28:33;13.07;;;11.30;;
39066;SDS011;24821;51.988;6.020;2023-05-07T08:30:59;16.35;;;13.18;;
39066;SDS011;24821;51.988;6.020;2023-05-07T08:33:26;14.80;;;13.10;;
39066;SDS011;24821;51.988;6.020;2023-05-07T08:35:51;15.60;;;13.98;;
39066;SDS011;24821;51.988;6.020;2023-05-07T08:38:17;12.30;;;11.10;;
39066;SDS011;24821;51.988;6.020;2023-05-07T08:40:42;16.50;;;13.10;;
39066;SDS011;24821;51.988;6.020;2023-05-07T08:43:08;15.27;;;13.60;;
39066;SDS011;24821;51.988;6.020;2023-05-07T08:45:42;12.77;;;11.40;;
39066;SDS011;24821;51.988;6.020;2023-05-07T08:48:19;14.18;;;12.65;;
39066;SDS011;24821;51.988;6.020;2023-05-07T08:50:46;13.52;;;12.07;;
39066;SDS011;24821;51.988;6.020;2023-05-07T08:53:12;18.20;;;13.13;;
39066;SDS011;24821;51.988;6.020;2023-05-07T08:55:38;13.82;;;12.48;;
39066;SDS011;24821;51.988;6.020;2023-05-07T08:58:04;12.20;;;10.93;;
39066;SDS011;24821;51.988;6.020;2023-05-07T09:00:29;14.80;;;10.57;;
39066;SDS011;24821;51.988;6.020;2023-05-07T09:02:55;12.80;;;11.55;;
39066;SDS011;24821;51.988;6.020;2023-05-07T09:05:21;11.88;;;10.65;;
39066;SDS011;24821;51.988;6.020;2023-05-07T09:07:46;13.80;;;12.23;;
39066;SDS011;24821;51.988;6.020;2023-05-07T09:10:12;13.05;;;11.57;;
39066;SDS011;24821;51.988;6.020;2023-05-07T09:12:39;10.73;;;9.50;;
39066;SDS011;24821;51.988;6.020;2023-05-07T09:15:05;11.63;;;10.38;;
39066;SDS011;24821;51.988;6.020;2023-05-07T09:17:31;15.65;;;12.45;;
39066;SDS011;24821;51.988;6.020;2023-05-07T09:20:01;15.38;;;12.20;;
39066;SDS011;24821;51.988;6.020;2023-05-07T09:22:31;11.55;;;10.35;;
39066;SDS011;24821;51.988;6.020;2023-05-07T09:24:57;12.75;;;10.32;;
39066;SDS011;24821;51.988;6.020;2023-05-07T09:27:23;13.48;;;9.60;;
39066;SDS011;24821;51.988;6.020;2023-05-07T09:29:50;10.18;;;9.15;;
39066;SDS011;24821;51.988;6.020;2023-05-07T09:32:16;15.25;;;9.00;;
39066;SDS011;24821;51.988;6.020;2023-05-07T09:34:42;10.70;;;9.68;;
39066;SDS011;24821;51.988;6.020;2023-05-07T09:37:07;10.52;;;9.55;;
39066;SDS011;24821;51.988;6.020;2023-05-07T09:39:43;13.18;;;10.18;;
39066;SDS011;24821;51.988;6.020;2023-05-07T09:42:13;13.75;;;9.63;;
39066;SDS011;24821;51.988;6.020;2023-05-07T09:44:43;11.48;;;9.50;;
39066;SDS011;24821;51.988;6.020;2023-05-07T09:47:09;11.05;;;9.57;;
39066;SDS011;24821;51.988;6.020;2023-05-07T09:49:37;9.57;;;8.60;;
39066;SDS011;24821;51.988;6.020;2023-05-07T09:52:05;13.10;;;9.88;;
39066;SDS011;24821;51.988;6.020;2023-05-07T09:54:33;11.25;;;10.10;;
39066;SDS011;24821;51.988;6.020;2023-05-07T09:57:03;10.65;;;9.75;;
39066;SDS011;24821;51.988;6.020;2023-05-07T09:59:32;11.20;;;10.15;;
39066;SDS011;24821;51.988;6.020;2023-05-07T10:01:58;11.32;;;9.90;;
39066;SDS011;24821;51.988;6.020;2023-05-07T10:04:25;11.45;;;10.10;;
39066;SDS011;24821;51.988;6.020;2023-05-07T10:06:51;10.25;;;9.15;;
39066;SDS011;24821;51.988;6.020;2023-05-07T10:09:20;10.63;;;9.52;;
39066;SDS011;24821;51.988;6.020;2023-05-07T10:11:47;9.52;;;8.68;;
39066;SDS011;24821;51.988;6.020;2023-05-07T10:14:14;12.13;;;9.68;;
39066;SDS011;24821;51.988;6.020;2023-05-07T10:16:39;9.35;;;8.45;;
39066;SDS011;24821;51.988;6.020;2023-05-07T10:19:06;10.00;;;8.80;;
39066;SDS011;24821;51.988;6.020;2023-05-07T10:21:35;14.10;;;10.00;;
39066;SDS011;24821;51.988;6.020;2023-05-07T10:24:06;11.35;;;10.40;;
39066;SDS011;24821;51.988;6.020;2023-05-07T10:26:39;11.93;;;10.93;;
39066;SDS011;24821;51.988;6.020;2023-05-07T10:29:10;15.05;;;10.68;;
39066;SDS011;24821;51.988;6.020;2023-05-07T10:31:55;11.88;;;10.70;;
39066;SDS011;24821;51.988;6.020;2023-05-07T10:37:05;11.35;;;10.32;;
39066;SDS011;24821;51.988;6.020;2023-05-07T10:39:32;11.18;;;10.25;;
39066;SDS011;24821;51.988;6.020;2023-05-07T10:42:06;12.65;;;11.50;;
39066;SDS011;24821;51.988;6.020;2023-05-07T10:44:36;12.13;;;10.98;;
39066;SDS011;24821;51.988;6.020;2023-05-07T10:47:12;12.45;;;11.43;;
39066;SDS011;24821;51.988;6.020;2023-05-07T10:52:17;10.52;;;9.63;;
39066;SDS011;24821;51.988;6.020;2023-05-07T10:54:45;11.32;;;10.25;;
39066;SDS011;24821;51.988;6.020;2023-05-07T11:00:02;9.75;;;8.90;;
39066;SDS011;24821;51.988;6.020;2023-05-07T11:03:04;11.63;;;10.52;;
39066;SDS011;24821;51.988;6.020;2023-05-07T11:05:26;11.38;;;10.38;;
39066;SDS011;24821;51.988;6.020;2023-05-07T11:08:01;10.48;;;9.68;;
39066;SDS011;24821;51.988;6.020;2023-05-07T11:13:13;12.50;;;11.18;;
39066;SDS011;24821;51.988;6.020;2023-05-07T11:15:40;13.77;;;10.85;;
39066;SDS011;24821;51.988;6.020;2023-05-07T11:18:08;12.40;;;11.15;;
39066;SDS011;24821;51.988;6.020;2023-05-07T11:26:07;11.65;;;10.63;;
39066;SDS011;24821;51.988;6.020;2023-05-07T11:28:38;9.02;;;8.23;;
39066;SDS011;24821;51.988;6.020;2023-05-07T11:31:05;11.02;;;10.13;;
39066;SDS011;24821;51.988;6.020;2023-05-07T11:33:31;11.77;;;10.57;;
39066;SDS011;24821;51.988;6.020;2023-05-07T11:35:57;13.02;;;11.73;;
39066;SDS011;24821;51.988;6.020;2023-05-07T11:38:24;11.85;;;10.85;;
39066;SDS011;24821;51.988;6.020;2023-05-07T11:40:51;11.32;;;10.27;;
39066;SDS011;24821;51.988;6.020;2023-05-07T11:43:17;12.07;;;10.98;;
39066;SDS011;24821;51.988;6.020;2023-05-07T11:45:46;11.77;;;10.82;;
39066;SDS011;24821;51.988;6.020;2023-05-07T11:48:12;12.63;;;11.43;;
39066;SDS011;24821;51.988;6.020;2023-05-07T11:50:51;10.93;;;10.05;;
39066;SDS011;24821;51.988;6.020;2023-05-07T11:53:26;11.13;;;10.32;;
39066;SDS011;24821;51.988;6.020;2023-05-07T11:55:53;11.18;;;10.10;;
39066;SDS011;24821;51.988;6.020;2023-05-07T11:58:22;15.00;;;11.68;;
39066;SDS011;24821;51.988;6.020;2023-05-07T12:00:52;11.52;;;10.55;;
39066;SDS011;24821;51.988;6.020;2023-05-07T12:03:19;10.85;;;9.90;;
39066;SDS011;24821;51.988;6.020;2023-05-07T12:05:48;9.55;;;8.75;;
39066;SDS011;24821;51.988;6.020;2023-05-07T12:08:14;9.27;;;8.50;;
39066;SDS011;24821;51.988;6.020;2023-05-07T12:10:44;10.38;;;9.25;;
39066;SDS011;24821;51.988;6.020;2023-05-07T12:16:22;9.50;;;8.70;;
39066;SDS011;24821;51.988;6.020;2023-05-07T12:18:59;10.40;;;9.57;;
39066;SDS011;24821;51.988;6.020;2023-05-07T12:21:33;9.57;;;8.77;;
39066;SDS011;24821;51.988;6.020;2023-05-07T12:26:40;9.55;;;8.88;;
39066;SDS011;24821;51.988;6.020;2023-05-07T12:29:06;11.65;;;10.52;;
39066;SDS011;24821;51.988;6.020;2023-05-07T12:34:45;9.43;;;8.73;;
39066;SDS011;24821;51.988;6.020;2023-05-07T12:37:14;10.88;;;9.90;;
39066;SDS011;24821;51.988;6.020;2023-05-07T12:39:49;9.05;;;8.15;;
39066;SDS011;24821;51.988;6.020;2023-05-07T12:42:38;9.38;;;8.57;;
39066;SDS011;24821;51.988;6.020;2023-05-07T12:45:11;9.88;;;8.88;;
39066;SDS011;24821;51.988;6.020;2023-05-07T12:47:38;9.43;;;8.52;;
39066;SDS011;24821;51.988;6.020;2023-05-07T12:50:07;10.00;;;9.25;;
39066;SDS011;24821;51.988;6.020;2023-05-07T12:52:33;10.15;;;9.02;;
39066;SDS011;24821;51.988;6.020;2023-05-07T12:55:04;10.13;;;9.30;;
39066;SDS011;24821;51.988;6.020;2023-05-07T12:57:31;10.10;;;9.15;;
39066;SDS011;24821;51.988;6.020;2023-05-07T13:00:07;11.05;;;9.95;;
39066;SDS011;24821;51.988;6.020;2023-05-07T13:02:34;9.68;;;8.98;;
39066;SDS011;24821;51.988;6.020;2023-05-07T13:05:05;9.80;;;8.82;;
39066;SDS011;24821;51.988;6.020;2023-05-07T13:07:31;10.07;;;9.27;;
39066;SDS011;24821;51.988;6.020;2023-05-07T13:09:56;10.32;;;9.52;;
39066;SDS011;24821;51.988;6.020;2023-05-07T13:12:22;10.32;;;9.38;;
39066;SDS011;24821;51.988;6.020;2023-05-07T13:14:47;9.38;;;8.57;;
39066;SDS011;24821;51.988;6.020;2023-05-07T13:17:13;10.68;;;10.02;;
39066;SDS011;24821;51.988;6.020;2023-05-07T13:19:38;14.07;;;12.57;;
39066;SDS011;24821;51.988;6.020;2023-05-07T13:22:04;12.10;;;10.98;;
39066;SDS011;24821;51.988;6.020;2023-05-07T13:24:30;13.82;;;12.63;;
39066;SDS011;24821;51.988;6.020;2023-05-07T13:26:55;14.80;;;13.63;;
39066;SDS011;24821;51.988;6.020;2023-05-07T13:29:21;17.38;;;16.10;;
39066;SDS011;24821;51.988;6.020;2023-05-07T13:31:55;17.88;;;16.42;;
39066;SDS011;24821;51.988;6.020;2023-05-07T13:34:23;15.30;;;13.93;;
39066;SDS011;24821;51.988;6.020;2023-05-07T13:36:49;13.60;;;12.50;;
39066;SDS011;24821;51.988;6.020;2023-05-07T13:39:15;13.38;;;12.18;;
39066;SDS011;24821;51.988;6.020;2023-05-07T13:41:41;12.93;;;11.90;;
39066;SDS011;24821;51.988;6.020;2023-05-07T13:44:06;12.02;;;10.75;;
39066;SDS011;24821;51.988;6.020;2023-05-07T13:46:32;12.98;;;11.20;;
39066;SDS011;24821;51.988;6.020;2023-05-07T13:48:58;12.73;;;11.63;;
39066;SDS011;24821;51.988;6.020;2023-05-07T13:51:23;11.98;;;10.52;;
39066;SDS011;24821;51.988;6.020;2023-05-07T13:53:49;12.63;;;11.15;;
39066;SDS011;24821;51.988;6.020;2023-05-07T13:56:15;11.80;;;10.63;;
39066;SDS011;24821;51.988;6.020;2023-05-07T13:58:40;13.45;;;11.75;;
39066;SDS011;24821;51.988;6.020;2023-05-07T14:01:06;13.15;;;12.05;;
39066;SDS011;24821;51.988;6.020;2023-05-07T14:03:32;12.88;;;11.70;;
39066;SDS011;24821;51.988;6.020;2023-05-07T14:05:58;13.05;;;11.82;;
39066;SDS011;24821;51.988;6.020;2023-05-07T14:08:26;12.68;;;11.43;;
39066;SDS011;24821;51.988;6.020;2023-05-07T14:10:52;11.50;;;10.60;;
39066;SDS011;24821;51.988;6.020;2023-05-07T14:13:17;12.95;;;11.85;;
39066;SDS011;24821;51.988;6.020;2023-05-07T14:15:43;12.88;;;11.85;;
39066;SDS011;24821;51.988;6.020;2023-05-07T14:18:11;11.05;;;10.15;;
39066;SDS011;24821;51.988;6.020;2023-05-07T14:20:37;9.50;;;8.70;;
39066;SDS011;24821;51.988;6.020;2023-05-07T14:23:03;7.68;;;7.28;;
39066;SDS011;24821;51.988;6.020;2023-05-07T14:25:29;6.80;;;6.20;;
39066;SDS011;24821;51.988;6.020;2023-05-07T14:27:54;5.88;;;5.57;;
39066;SDS011;24821;51.988;6.020;2023-05-07T14:30:20;4.78;;;4.47;;
39066;SDS011;24821;51.988;6.020;2023-05-07T14:32:47;4.53;;;4.25;;
39066;SDS011;24821;51.988;6.020;2023-05-07T14:35:12;5.05;;;4.78;;
39066;SDS011;24821;51.988;6.020;2023-05-07T14:37:38;5.45;;;5.20;;
39066;SDS011;24821;51.988;6.020;2023-05-07T14:40:04;7.47;;;7.00;;
39066;SDS011;24821;51.988;6.020;2023-05-07T14:42:30;7.55;;;6.85;;
39066;SDS011;24821;51.988;6.020;2023-05-07T14:44:55;7.72;;;7.13;;
39066;SDS011;24821;51.988;6.020;2023-05-07T14:47:21;8.98;;;8.27;;
39066;SDS011;24821;51.988;6.020;2023-05-07T14:49:46;7.88;;;7.38;;
39066;SDS011;24821;51.988;6.020;2023-05-07T14:52:12;8.68;;;8.13;;
39066;SDS011;24821;51.988;6.020;2023-05-07T14:54:38;7.07;;;6.57;;
39066;SDS011;24821;51.988;6.020;2023-05-07T14:57:04;6.28;;;5.68;;